Time;durP1;ratioP1;P1;durP2;ratioP2;P2;SDS_P1;SDS_P2;PMS_P1;PMS_P2;Temp;Humidity;BMP_temperature;BMP_pressure;BME280_temperature;BME280_humidity;BME280_pressure;Samples;Min_cycle;Max_cycle;Signal;HPM_P1;HPM_P2
2022/12/30 00:02:16;;;;;;;14.73;3.13;;;6.30;99.90;;;;;;5073584;28;20192;-66
2022/12/30 00:05:23;;;;;;;10.10;2.90;;;6.30;99.90;;;;;;5073771;28;20689;-66
2022/12/30 00:07:52;;;;;;;12.03;3.60;;;6.30;99.90;;;;;;5073015;28;20192;-65
2022/12/30 00:10:20;;;;;;;23.57;3.97;;;6.30;99.90;;;;;;5071907;28;20208;-65
2022/12/30 00:34:30;;;;;;;18.77;3.40;;;6.00;99.90;;;;;;5055418;28;20196;-65
2022/12/30 00:37:00;;;;;;;18.67;3.13;;;6.00;99.90;;;;;;5073437;28;20199;-65
2022/12/30 00:39:29;;;;;;;17.20;3.40;;;5.90;99.90;;;;;;5073109;28;20278;-66
2022/12/30 00:44:43;;;;;;;13.30;3.27;;;5.90;99.90;;;;;;5073043;28;20631;-66
2022/12/30 00:47:13;;;;;;;11.23;3.07;;;5.90;99.90;;;;;;5073707;28;20551;-65
2022/12/30 00:58:01;;;;;;;15.23;3.37;;;5.90;99.90;;;;;;5107951;28;20184;-65
2022/12/30 01:00:29;;;;;;;12.17;3.07;;;5.80;99.90;;;;;;5075406;28;20195;-66
2022/12/30 01:03:00;;;;;;;12.37;3.30;;;5.80;99.90;;;;;;5075489;28;20199;-66
2022/12/30 01:05:29;;;;;;;14.87;3.67;;;5.80;99.90;;;;;;5076555;28;20247;-65
2022/12/30 01:07:58;;;;;;;15.27;3.30;;;5.80;99.90;;;;;;5076451;28;20196;-65
2022/12/30 01:10:27;;;;;;;26.23;4.00;;;5.70;99.90;;;;;;5075050;28;20223;-66
2022/12/30 01:12:55;;;;;;;16.27;3.67;;;5.70;99.90;;;;;;5076432;28;20570;-65
2022/12/30 01:15:25;;;;;;;15.47;3.77;;;5.70;99.90;;;;;;5076325;28;20252;-65
2022/12/30 01:17:53;;;;;;;13.60;4.23;;;5.70;99.90;;;;;;5076604;28;20212;-66
2022/12/30 01:20:22;;;;;;;13.03;3.53;;;5.70;99.90;;;;;;5076501;28;20193;-65
2022/12/30 01:22:50;;;;;;;16.83;4.00;;;5.70;99.90;;;;;;5076564;28;20677;-66
2022/12/30 01:25:20;;;;;;;14.23;4.60;;;5.70;99.90;;;;;;5076326;28;20218;-65
2022/12/30 01:27:51;;;;;;;18.50;4.40;;;5.70;99.90;;;;;;5076284;28;20700;-65
2022/12/30 01:30:21;;;;;;;17.20;4.50;;;5.60;99.90;;;;;;5075064;28;20725;-66
2022/12/30 01:32:49;;;;;;;12.03;5.33;;;5.60;99.90;;;;;;5076342;28;20188;-65
2022/12/30 01:35:18;;;;;;;20.83;4.63;;;5.60;99.90;;;;;;5076017;28;20612;-66
2022/12/30 01:37:46;;;;;;;21.47;4.43;;;5.50;99.90;;;;;;5076009;28;20674;-66
2022/12/30 01:40:15;;;;;;;21.23;4.80;;;5.50;99.90;;;;;;5074621;28;20196;-66
2022/12/30 01:42:44;;;;;;;17.77;3.87;;;5.50;99.90;;;;;;5058026;28;20218;-66
2022/12/30 01:45:22;;;;;;;21.67;5.10;;;5.60;99.90;;;;;;5075799;28;20295;-66
2022/12/30 01:47:54;;;;;;;16.27;4.40;;;5.50;99.90;;;;;;5108474;28;20176;-66
2022/12/30 01:50:31;;;;;;;15.77;4.00;;;5.50;99.90;;;;;;5074458;28;20280;-65
2022/12/30 01:53:03;;;;;;;12.13;4.00;;;5.50;99.90;;;;;;5075188;28;20545;-66
2022/12/30 01:55:36;;;;;;;19.57;4.47;;;5.50;99.90;;;;;;5075687;28;20219;-66
2022/12/30 01:58:10;;;;;;;14.63;3.63;;;5.50;99.90;;;;;;5075651;28;20230;-65
2022/12/30 02:05:26;;;;;;;20.33;3.67;;;5.50;99.90;;;;;;5075600;28;20241;-66
2022/12/30 02:08:01;;;;;;;16.13;4.03;;;5.50;99.90;;;;;;5075020;28;20193;-65
2022/12/30 02:10:30;;;;;;;17.23;3.80;;;5.50;99.90;;;;;;5075380;28;20200;-66
2022/12/30 02:13:01;;;;;;;16.43;4.00;;;5.40;99.90;;;;;;5074201;28;20228;-65
2022/12/30 02:15:37;;;;;;;16.17;3.77;;;5.30;99.90;;;;;;5074383;28;20191;-66
2022/12/30 02:18:12;;;;;;;12.50;3.53;;;5.30;99.90;;;;;;5075298;28;20219;-66
2022/12/30 02:21:16;;;;;;;12.43;3.30;;;5.30;99.90;;;;;;5075909;28;20198;-66
2022/12/30 02:24:25;;;;;;;19.10;3.80;;;5.30;99.90;;;;;;5063621;28;20212;-66
2022/12/30 02:27:23;;;;;;;14.10;3.67;;;5.20;99.90;;;;;;5075038;28;20550;-65
2022/12/30 02:30:19;;;;;;;20.27;3.50;;;5.20;99.90;;;;;;5074058;28;20542;-66
2022/12/30 02:33:13;;;;;;;16.20;4.13;;;5.20;99.90;;;;;;5075356;28;20208;-65
2022/12/30 02:35:52;;;;;;;17.23;4.10;;;5.20;99.90;;;;;;5073659;28;20249;-66
2022/12/30 02:38:30;;;;;;;24.73;5.27;;;5.20;99.90;;;;;;5075371;28;20188;-66
2022/12/30 02:46:46;;;;;;;21.00;3.90;;;5.20;99.90;;;;;;5074968;28;20199;-66
2022/12/30 02:49:18;;;;;;;21.33;4.40;;;5.10;99.90;;;;;;5074649;28;20181;-65
2022/12/30 02:54:33;;;;;;;18.10;3.77;;;5.20;99.90;;;;;;5074497;28;20192;-65
2022/12/30 02:57:01;;;;;;;13.80;3.83;;;5.20;99.90;;;;;;5074478;28;20192;-66
2022/12/30 03:05:33;;;;;;;11.90;3.77;;;5.20;99.90;;;;;;5074284;28;20274;-65
2022/12/30 03:08:14;;;;;;;14.37;3.90;;;5.10;99.90;;;;;;5074525;28;20191;-65
2022/12/30 03:13:40;;;;;;;15.93;4.17;;;5.10;99.90;;;;;;5074118;28;20188;-66
2022/12/30 03:16:14;;;;;;;23.10;3.90;;;5.10;99.90;;;;;;5074009;28;20321;-65
2022/12/30 03:18:44;;;;;;;17.37;3.50;;;5.10;99.90;;;;;;5074668;28;20305;-65
2022/12/30 03:21:14;;;;;;;13.37;3.17;;;5.10;99.90;;;;;;5073246;28;20184;-66
2022/12/30 03:29:24;;;;;;;25.80;3.90;;;5.10;99.90;;;;;;5073808;28;20651;-66
2022/12/30 03:31:53;;;;;;;17.23;3.40;;;5.10;99.90;;;;;;5073701;28;20223;-66
2022/12/30 03:34:23;;;;;;;20.43;3.70;;;5.00;99.90;;;;;;5072656;28;20203;-65
2022/12/30 03:36:57;;;;;;;11.93;3.63;;;5.10;99.90;;;;;;5073389;28;20192;-66
2022/12/30 03:39:30;;;;;;;10.87;3.30;;;5.10;99.90;;;;;;5072919;28;20195;-65
2022/12/30 03:42:00;;;;;;;15.00;3.90;;;5.20;99.90;;;;;;5073984;28;20180;-66
2022/12/30 03:44:30;;;;;;;17.77;3.53;;;5.20;99.90;;;;;;5074344;28;20198;-66
2022/12/30 03:46:58;;;;;;;17.97;3.70;;;5.20;99.90;;;;;;5073725;28;20188;-65
2022/12/30 03:49:26;;;;;;;15.33;3.77;;;5.20;99.90;;;;;;5073577;28;20235;-66
2022/12/30 03:51:59;;;;;;;15.47;3.67;;;5.20;99.90;;;;;;5073711;28;20216;-65
2022/12/30 03:54:32;;;;;;;17.40;3.63;;;5.20;99.90;;;;;;5073685;28;20196;-66
2022/12/30 03:57:01;;;;;;;15.20;4.07;;;5.20;99.90;;;;;;5073446;28;20224;-65
2022/12/30 03:59:29;;;;;;;16.67;3.40;;;5.30;99.90;;;;;;5073409;28;20253;-65
2022/12/30 04:06:36;;;;;;;12.93;3.80;;;5.40;99.90;;;;;;5073446;28;20168;-66
2022/12/30 04:09:06;;;;;;;19.00;3.43;;;5.40;99.90;;;;;;5073987;28;20635;-65
2022/12/30 04:11:34;;;;;;;14.97;4.00;;;5.40;99.90;;;;;;5073189;28;20224;-65
2022/12/30 04:14:03;;;;;;;17.27;3.67;;;5.40;99.90;;;;;;5073591;28;20173;-65
2022/12/30 04:16:32;;;;;;;25.33;3.97;;;5.40;99.90;;;;;;5073247;28;20194;-65
2022/12/30 04:19:00;;;;;;;14.33;3.57;;;5.40;99.90;;;;;;5073208;28;20192;-65
2022/12/30 04:21:28;;;;;;;17.67;4.07;;;5.40;99.90;;;;;;5073352;28;20602;-65
2022/12/30 04:23:57;;;;;;;13.30;3.47;;;5.40;99.90;;;;;;5073119;28;20311;-65
2022/12/30 04:26:26;;;;;;;13.27;3.43;;;5.30;99.90;;;;;;5056081;28;20198;-66
2022/12/30 04:28:55;;;;;;;9.87;3.53;;;5.40;99.90;;;;;;5072006;28;20203;-65
2022/12/30 04:31:23;;;;;;;13.90;4.00;;;5.40;99.90;;;;;;5074803;28;20192;-65
2022/12/30 04:33:52;;;;;;;21.77;3.87;;;5.40;99.90;;;;;;5077636;28;20216;-65
2022/12/30 04:36:22;;;;;;;8.67;3.53;;;5.40;99.90;;;;;;5077734;28;20192;-65
2022/12/30 04:38:50;;;;;;;14.17;3.80;;;5.40;99.90;;;;;;5077883;28;20188;-65
2022/12/30 04:41:20;;;;;;;13.13;3.97;;;5.30;99.90;;;;;;5077185;28;20215;-66
2022/12/30 04:43:49;;;;;;;15.73;4.03;;;5.30;99.90;;;;;;5077201;28;20267;-66
2022/12/30 04:46:18;;;;;;;14.30;3.63;;;5.30;99.90;;;;;;5076956;28;20188;-65
2022/12/30 04:48:47;;;;;;;13.90;3.33;;;5.20;99.90;;;;;;5076880;28;20202;-65
2022/12/30 04:51:24;;;;;;;10.97;3.63;;;5.20;99.90;;;;;;5076976;28;20187;-65
2022/12/30 04:53:52;;;;;;;18.23;4.33;;;5.20;99.90;;;;;;5075422;28;20223;-65
2022/12/30 04:56:21;;;;;;;20.03;4.60;;;5.20;99.90;;;;;;5076832;28;20283;-65
2022/12/30 04:58:55;;;;;;;13.40;3.93;;;5.20;99.90;;;;;;5076762;28;20192;-65
2022/12/30 05:01:23;;;;;;;14.47;3.67;;;5.20;99.90;;;;;;5076774;28;20278;-65
2022/12/30 05:04:30;;;;;;;21.30;4.20;;;5.20;99.90;;;;;;5077041;28;20577;-65
2022/12/30 05:06:59;;;;;;;23.60;4.77;;;5.10;99.90;;;;;;5075572;28;20241;-65
2022/12/30 05:09:27;;;;;;;13.63;4.03;;;5.20;99.90;;;;;;5076604;28;20250;-65
2022/12/30 05:11:56;;;;;;;16.93;4.20;;;5.20;99.90;;;;;;5076200;28;20584;-65
2022/12/30 05:14:26;;;;;;;21.57;4.63;;;5.20;99.90;;;;;;5076710;28;20192;-66
2022/12/30 05:16:54;;;;;;;16.40;4.33;;;5.20;99.90;;;;;;5075239;28;20223;-66
2022/12/30 05:19:23;;;;;;;21.07;4.43;;;5.20;99.90;;;;;;5076361;28;20196;-65
2022/12/30 05:21:51;;;;;;;23.40;4.47;;;5.20;99.90;;;;;;5076298;28;20665;-65
2022/12/30 05:27:05;;;;;;;11.97;3.63;;;5.30;99.90;;;;;;5076486;28;20664;-65
2022/12/30 05:29:35;;;;;;;17.20;4.87;;;5.30;99.90;;;;;;5074981;28;20203;-65
2022/12/30 05:32:04;;;;;;;13.57;4.33;;;5.30;99.90;;;;;;5076119;28;20188;-65
2022/12/30 05:34:32;;;;;;;19.23;5.20;;;5.20;99.90;;;;;;5076054;28;20200;-65
2022/12/30 05:37:01;;;;;;;22.13;4.50;;;5.20;99.90;;;;;;5076465;28;20192;-65
2022/12/30 05:39:29;;;;;;;13.50;4.30;;;5.20;99.90;;;;;;5075972;28;20192;-65
2022/12/30 05:41:57;;;;;;;15.27;5.23;;;5.20;99.90;;;;;;5074417;28;20255;-65
2022/12/30 05:44:26;;;;;;;14.57;4.40;;;5.30;99.90;;;;;;5075170;28;20672;-65
2022/12/30 05:46:56;;;;;;;22.77;5.73;;;5.30;99.90;;;;;;5075828;28;20670;-65
2022/12/30 05:49:24;;;;;;;16.83;5.00;;;5.30;99.90;;;;;;5074789;28;20196;-65
2022/12/30 05:51:53;;;;;;;22.13;5.83;;;5.20;99.90;;;;;;5075825;28;20188;-64
2022/12/30 05:54:21;;;;;;;17.27;5.53;;;5.20;99.90;;;;;;5075716;28;20565;-65
2022/12/30 05:56:50;;;;;;;15.27;4.93;;;5.20;99.90;;;;;;5075667;28;20203;-65
2022/12/30 05:59:18;;;;;;;18.77;5.47;;;5.30;99.90;;;;;;5075737;28;20200;-65
2022/12/30 06:01:46;;;;;;;15.97;5.87;;;5.30;99.90;;;;;;5075895;28;20207;-65
2022/12/30 06:04:17;;;;;;;13.23;5.83;;;5.30;99.90;;;;;;5075861;28;20180;-65
2022/12/30 06:06:45;;;;;;;16.70;5.73;;;5.40;99.90;;;;;;5074318;28;20203;-65
2022/12/30 06:09:14;;;;;;;20.70;5.57;;;5.40;99.90;;;;;;5075478;28;20200;-65
2022/12/30 06:11:42;;;;;;;18.37;6.37;;;5.40;99.90;;;;;;5074095;28;20234;-65
2022/12/30 06:14:14;;;;;;;11.20;5.80;;;5.50;99.90;;;;;;5075292;28;20674;-65
2022/12/30 06:16:42;;;;;;;18.57;5.80;;;5.50;99.90;;;;;;5075673;28;20190;-65
2022/12/30 06:19:11;;;;;;;18.20;6.00;;;5.50;99.90;;;;;;5075600;28;20196;-65
2022/12/30 06:21:41;;;;;;;18.83;6.07;;;5.60;99.90;;;;;;5073828;28;20188;-65
2022/12/30 06:24:09;;;;;;;13.23;5.07;;;5.70;99.90;;;;;;5075097;28;20218;-65
2022/12/30 06:26:37;;;;;;;17.57;6.17;;;5.70;99.90;;;;;;5074398;28;20191;-65
2022/12/30 06:29:06;;;;;;;16.27;5.33;;;5.80;99.90;;;;;;5075044;28;20697;-66
2022/12/30 06:31:34;;;;;;;9.93;5.00;;;5.90;99.90;;;;;;5074962;28;20549;-65
2022/12/30 06:34:02;;;;;;;17.00;5.77;;;5.90;99.90;;;;;;5075295;28;20246;-65
2022/12/30 06:36:33;;;;;;;13.20;5.20;;;5.90;99.90;;;;;;5075012;28;20196;-65
2022/12/30 06:39:03;;;;;;;13.67;5.10;;;6.00;99.90;;;;;;5074407;28;20270;-66
2022/12/30 06:41:32;;;;;;;10.37;4.87;;;6.00;99.90;;;;;;5075428;28;20188;-65
2022/12/30 06:44:00;;;;;;;15.00;4.53;;;6.00;99.90;;;;;;5074739;28;20241;-65
2022/12/30 06:46:28;;;;;;;16.53;4.80;;;6.10;99.90;;;;;;5074815;28;20196;-65
2022/12/30 06:48:57;;;;;;;18.17;4.80;;;6.10;99.90;;;;;;5074715;28;20262;-65
2022/12/30 06:51:25;;;;;;;10.73;3.87;;;6.10;99.90;;;;;;5074851;28;20191;-64
2022/12/30 06:53:54;;;;;;;14.73;3.60;;;6.20;99.90;;;;;;5074670;28;20654;-66
2022/12/30 06:56:27;;;;;;;13.03;3.80;;;6.30;99.90;;;;;;5074997;28;20198;-65
2022/12/30 06:58:55;;;;;;;9.20;3.80;;;6.30;99.90;;;;;;5074559;28;20191;-65
2022/12/30 07:01:26;;;;;;;18.73;4.17;;;6.40;99.90;;;;;;5074878;28;20202;-65
2022/12/30 07:03:55;;;;;;;13.40;3.03;;;6.40;99.90;;;;;;5074533;28;20206;-65
2022/12/30 07:06:23;;;;;;;9.10;3.57;;;6.40;99.90;;;;;;5074199;28;20184;-65
2022/12/30 07:08:52;;;;;;;9.73;3.60;;;6.50;99.90;;;;;;5074118;28;20574;-65
2022/12/30 07:11:20;;;;;;;10.47;3.27;;;6.50;99.90;;;;;;5074053;28;20582;-65
2022/12/30 07:13:50;;;;;;;10.97;3.83;;;6.50;99.90;;;;;;5074023;28;20570;-66
2022/12/30 07:16:18;;;;;;;9.23;3.83;;;6.50;99.90;;;;;;5073999;28;20196;-65
2022/12/30 07:18:47;;;;;;;7.30;3.30;;;6.50;99.90;;;;;;5072804;28;20220;-65
2022/12/30 07:21:15;;;;;;;16.27;4.00;;;6.60;99.90;;;;;;5073074;28;20224;-65
2022/12/30 07:23:43;;;;;;;8.43;2.93;;;6.60;99.90;;;;;;5073990;28;20195;-66
2022/12/30 07:26:12;;;;;;;8.93;3.40;;;6.50;99.90;;;;;;5074014;28;20667;-65
2022/12/30 07:28:40;;;;;;;10.57;3.43;;;6.60;99.90;;;;;;5074215;28;20538;-65
2022/12/30 07:31:11;;;;;;;12.17;3.57;;;6.60;99.90;;;;;;5073799;28;20199;-66
2022/12/30 07:33:39;;;;;;;8.80;3.37;;;6.60;99.90;;;;;;5073727;28;20211;-65
2022/12/30 07:36:08;;;;;;;10.13;3.70;;;6.70;99.90;;;;;;5073735;28;20608;-65
2022/12/30 07:38:36;;;;;;;8.73;3.37;;;6.70;99.90;;;;;;5073686;28;20200;-65
2022/12/30 07:41:06;;;;;;;8.47;3.23;;;6.70;99.90;;;;;;5073612;28;20647;-65
2022/12/30 07:43:34;;;;;;;6.30;3.00;;;6.80;99.90;;;;;;5073609;28;20548;-65
2022/12/30 07:46:06;;;;;;;11.27;3.27;;;6.70;99.90;;;;;;5072364;28;20199;-66
2022/12/30 07:48:37;;;;;;;16.20;3.57;;;6.80;99.90;;;;;;5073891;28;20195;-65
2022/12/30 07:51:09;;;;;;;4.37;2.27;;;6.80;99.90;;;;;;5073985;28;20192;-65
2022/12/30 07:53:38;;;;;;;10.57;3.00;;;6.80;99.90;;;;;;5073478;28;20211;-66
2022/12/30 07:56:08;;;;;;;9.97;3.30;;;6.80;99.90;;;;;;5106269;28;20187;-65
2022/12/30 07:58:37;;;;;;;10.97;3.50;;;6.80;99.90;;;;;;5072267;28;20196;-65
2022/12/30 08:01:07;;;;;;;7.53;3.10;;;6.90;99.90;;;;;;5073480;28;20196;-65
2022/12/30 08:03:37;;;;;;;9.40;3.13;;;6.90;99.90;;;;;;5073788;28;20196;-65
2022/12/30 08:06:07;;;;;;;7.27;3.10;;;6.90;99.90;;;;;;5072844;28;20199;-65
2022/12/30 08:08:36;;;;;;;12.33;3.13;;;6.90;99.90;;;;;;5073496;28;20191;-65
2022/12/30 08:11:05;;;;;;;11.20;3.17;;;7.00;99.90;;;;;;5073574;28;20189;-65
2022/12/30 08:13:35;;;;;;;12.10;3.67;;;7.00;99.90;;;;;;5073263;28;20191;-66
2022/12/30 08:16:05;;;;;;;10.97;2.77;;;7.00;99.90;;;;;;5072154;28;20191;-65
2022/12/30 08:18:33;;;;;;;11.87;2.90;;;7.00;99.90;;;;;;5071889;28;20199;-66
2022/12/30 08:21:05;;;;;;;9.23;2.67;;;7.10;99.90;;;;;;5073142;28;20558;-65
2022/12/30 08:23:34;;;;;;;11.63;3.17;;;7.10;99.90;;;;;;5071788;28;20662;-64
2022/12/30 08:26:05;;;;;;;7.83;2.87;;;7.10;99.90;;;;;;5073132;28;20185;-65
2022/12/30 08:28:33;;;;;;;11.27;3.10;;;7.20;99.90;;;;;;5073361;28;20222;-65
2022/12/30 08:31:07;;;;;;;6.03;2.97;;;7.20;99.90;;;;;;5073057;28;20198;-65
2022/12/30 08:33:35;;;;;;;5.90;2.90;;;7.20;99.90;;;;;;5073104;28;20261;-65
2022/12/30 08:36:09;;;;;;;8.73;3.07;;;7.20;99.90;;;;;;5073704;28;20226;-65
2022/12/30 08:38:38;;;;;;;15.93;3.43;;;7.20;99.90;;;;;;5073036;28;20188;-65
2022/12/30 08:41:07;;;;;;;12.03;3.00;;;7.30;99.90;;;;;;5073484;28;20196;-65
2022/12/30 08:43:36;;;;;;;8.70;2.90;;;7.30;99.90;;;;;;5072608;28;20666;-66
2022/12/30 08:46:05;;;;;;;10.60;2.90;;;7.30;99.90;;;;;;5072919;28;20180;-65
2022/12/30 08:48:34;;;;;;;7.30;2.67;;;7.30;99.90;;;;;;5073469;28;20602;-65
2022/12/30 08:51:02;;;;;;;7.40;2.80;;;7.40;99.90;;;;;;5071644;28;20669;-64
2022/12/30 08:53:32;;;;;;;7.57;2.80;;;7.40;99.90;;;;;;5073484;28;20192;-66
2022/12/30 08:56:03;;;;;;;7.57;2.70;;;7.40;99.90;;;;;;5072728;28;20215;-65
2022/12/30 08:58:32;;;;;;;15.20;3.53;;;7.50;99.90;;;;;;5071851;28;20192;-65
2022/12/30 09:01:06;;;;;;;3.60;2.50;;;7.50;99.90;;;;;;5072878;28;20188;-65
2022/12/30 09:03:36;;;;;;;7.53;2.63;;;7.50;99.90;;;;;;5071913;28;20176;-65
2022/12/30 09:06:06;;;;;;;7.10;2.90;;;7.50;99.90;;;;;;5072896;28;20188;-65
2022/12/30 09:08:37;;;;;;;9.97;2.83;;;7.60;99.90;;;;;;5073112;28;20188;-65
2022/12/30 09:11:08;;;;;;;7.87;2.80;;;7.60;99.90;;;;;;5072908;28;20188;-65
2022/12/30 09:13:38;;;;;;;7.53;2.63;;;7.60;99.90;;;;;;5072987;28;20177;-66
2022/12/30 09:16:09;;;;;;;8.57;3.27;;;7.60;99.90;;;;;;5072999;28;20219;-65
2022/12/30 09:18:38;;;;;;;7.57;2.77;;;7.70;99.90;;;;;;5074788;28;20199;-65
2022/12/30 09:21:07;;;;;;;8.17;2.80;;;7.70;99.90;;;;;;5076295;28;20188;-64
2022/12/30 09:23:37;;;;;;;7.97;2.43;;;7.70;99.90;;;;;;5076407;28;20280;-65
2022/12/30 09:26:08;;;;;;;8.23;2.80;;;7.70;99.90;;;;;;5076349;28;20200;-64
2022/12/30 09:28:36;;;;;;;8.63;2.50;;;7.80;99.90;;;;;;5075329;28;20184;-65
2022/12/30 09:31:05;;;;;;;12.57;2.83;;;7.80;99.90;;;;;;5076198;28;20192;-65
2022/12/30 09:46:49;;;;;;;6.33;2.83;;;8.00;99.90;;;;;;5055937;28;20157;-65
2022/12/30 09:49:26;;;;;;;7.43;2.57;;;8.00;99.90;;;;;;5056402;28;20196;-64
2022/12/30 09:52:01;;;;;;;3.90;2.67;;;8.00;99.90;;;;;;5076077;28;20586;-65
2022/12/30 09:54:30;;;;;;;5.90;2.47;;;8.00;99.90;;;;;;5074785;28;20180;-65
2022/12/30 09:57:30;;;;;;;6.57;2.43;;;8.10;99.90;;;;;;5075553;28;20199;-65
2022/12/30 09:59:56;;;;;;;9.00;2.80;;;8.10;99.90;;;;;;5075508;28;20192;-65
2022/12/30 10:02:29;;;;;;;8.13;2.37;;;8.10;99.90;;;;;;5076475;28;20199;-65
2022/12/30 10:05:00;;;;;;;9.63;2.57;;;8.20;99.90;;;;;;5077649;28;20192;-65
2022/12/30 10:07:37;;;;;;;6.90;2.20;;;8.30;99.90;;;;;;5075823;28;20219;-65
2022/12/30 10:10:12;;;;;;;6.90;2.70;;;8.30;99.90;;;;;;5075495;28;20263;-65
2022/12/30 10:12:49;;;;;;;7.70;2.57;;;8.30;99.90;;;;;;5073869;28;20231;-65
2022/12/30 10:15:37;;;;;;;10.13;2.60;;;8.40;99.90;;;;;;5074121;28;20211;-65
2022/12/30 10:18:32;;;;;;;7.23;2.90;;;8.50;99.90;;;;;;5075269;28;20195;-65
2022/12/30 10:21:17;;;;;;;12.47;3.03;;;8.50;99.90;;;;;;5075287;28;20192;-65
2022/12/30 10:23:56;;;;;;;12.10;2.17;;;8.50;99.90;;;;;;5073878;28;20191;-65
2022/12/30 10:26:26;;;;;;;9.80;2.50;;;8.60;99.90;;;;;;5075382;28;20263;-64
2022/12/30 10:28:59;;;;;;;7.30;2.43;;;8.60;99.90;;;;;;5073320;28;20200;-65
2022/12/30 10:31:31;;;;;;;10.00;2.50;;;8.70;99.90;;;;;;5075010;28;20192;-65
2022/12/30 10:34:11;;;;;;;7.10;1.97;;;8.70;99.90;;;;;;5075054;28;20695;-64
2022/12/30 10:36:44;;;;;;;9.17;2.90;;;8.80;99.90;;;;;;5055303;28;20208;-65
2022/12/30 10:39:17;;;;;;;13.73;2.80;;;8.80;99.90;;;;;;5054928;28;20206;-65
2022/12/30 10:42:01;;;;;;;7.30;2.50;;;8.80;99.90;;;;;;5055035;28;20200;-65
2022/12/30 10:44:37;;;;;;;7.60;2.43;;;8.80;99.90;;;;;;5037144;28;20192;-65
2022/12/30 10:47:21;;;;;;;6.60;2.23;;;8.90;99.90;;;;;;5055067;28;20527;-65
2022/12/30 10:50:02;;;;;;;6.40;2.50;;;8.80;99.90;;;;;;5054620;28;20192;-65
2022/12/30 10:52:31;;;;;;;8.10;2.27;;;8.80;99.90;;;;;;5053486;28;20181;-64
2022/12/30 10:55:00;;;;;;;3.10;2.00;;;8.80;99.90;;;;;;5061849;28;20199;-66
2022/12/30 10:57:34;;;;;;;3.63;1.90;;;8.80;99.90;;;;;;5074580;28;20188;-65
2022/12/30 11:00:05;;;;;;;7.73;2.80;;;8.70;99.90;;;;;;5074444;28;20189;-65
2022/12/30 11:02:38;;;;;;;9.87;2.50;;;8.70;99.90;;;;;;5074566;28;20204;-66
2022/12/30 11:05:45;;;;;;;5.03;2.70;;;8.60;99.90;;;;;;5074697;28;20180;-66
2022/12/30 11:08:22;;;;;;;8.90;2.47;;;8.60;99.90;;;;;;5056642;28;20196;-65
2022/12/30 11:10:58;;;;;;;7.23;2.60;;;8.50;99.90;;;;;;5087874;28;20192;-66
2022/12/30 11:16:14;;;;;;;7.13;2.80;;;8.30;99.90;;;;;;5093117;28;20219;-65
2022/12/30 11:18:45;;;;;;;7.87;2.33;;;8.30;99.90;;;;;;5094386;28;20733;-65
2022/12/30 11:21:25;;;;;;;7.67;2.60;;;8.20;99.90;;;;;;5054898;28;20276;-65
2022/12/30 11:23:55;;;;;;;7.17;2.70;;;8.20;99.90;;;;;;5054165;28;20209;-66
2022/12/30 11:26:26;;;;;;;4.93;2.10;;;8.20;99.90;;;;;;5053705;28;20528;-65
2022/12/30 11:28:57;;;;;;;9.67;3.00;;;8.20;99.90;;;;;;5054011;28;20189;-66
2022/12/30 11:31:33;;;;;;;6.53;2.80;;;8.10;99.90;;;;;;5053991;28;20200;-66
2022/12/30 11:34:04;;;;;;;5.20;3.10;;;8.10;99.90;;;;;;5036118;28;20173;-66
2022/12/30 11:36:38;;;;;;;10.03;3.73;;;8.10;99.90;;;;;;5053747;28;20667;-67
2022/12/30 11:39:27;;;;;;;4.47;2.77;;;8.00;99.90;;;;;;5054712;28;20191;-65
2022/12/30 11:41:57;;;;;;;5.90;3.30;;;8.00;99.90;;;;;;5053153;28;20337;-65
2022/12/30 11:44:28;;;;;;;5.63;2.77;;;8.00;99.90;;;;;;5069120;28;20288;-65
2022/12/30 11:46:59;;;;;;;9.40;3.03;;;8.00;99.90;;;;;;5069129;28;20184;-65
2022/12/30 11:49:31;;;;;;;8.40;3.20;;;8.00;99.90;;;;;;5054061;28;20610;-65
2022/12/30 11:52:10;;;;;;;8.20;3.03;;;8.00;99.90;;;;;;5053959;28;20549;-65
2022/12/30 11:54:45;;;;;;;5.50;2.67;;;8.00;99.90;;;;;;5053682;28;20192;-65
2022/12/30 11:57:26;;;;;;;9.73;2.60;;;8.00;99.90;;;;;;5052173;28;20222;-66
2022/12/30 11:59:57;;;;;;;3.07;2.87;;;8.00;99.90;;;;;;5053724;28;20211;-65
2022/12/30 12:02:27;;;;;;;3.30;3.10;;;8.00;99.90;;;;;;5068909;28;20638;-65
2022/12/30 12:04:56;;;;;;;6.93;3.10;;;8.00;99.90;;;;;;5052411;28;20250;-65
2022/12/30 12:07:36;;;;;;;2.97;2.70;;;8.10;99.90;;;;;;5053715;28;20216;-64
2022/12/30 12:10:19;;;;;;;5.13;2.20;;;8.20;99.90;;;;;;5052097;28;20196;-65
2022/12/30 12:12:54;;;;;;;5.43;2.47;;;8.20;99.90;;;;;;5085477;28;20323;-64
2022/12/30 12:15:36;;;;;;;1.73;1.60;;;8.30;99.90;;;;;;5055168;28;20189;-64
2022/12/30 12:18:14;;;;;;;2.03;1.83;;;8.30;99.90;;;;;;5073245;28;20188;-64
2022/12/30 12:20:57;;;;;;;2.73;2.00;;;8.30;99.90;;;;;;5073862;28;20299;-65
2022/12/30 12:23:44;;;;;;;2.20;2.10;;;8.30;99.90;;;;;;5073534;28;20289;-65
2022/12/30 12:26:18;;;;;;;3.50;2.10;;;8.30;99.90;;;;;;5072067;28;20293;-64
2022/12/30 12:28:48;;;;;;;5.03;2.37;;;8.30;99.90;;;;;;5073516;28;20180;-65
2022/12/30 12:31:43;;;;;;;4.73;2.80;;;8.30;99.90;;;;;;5073451;28;20188;-64
2022/12/30 12:34:27;;;;;;;4.07;2.50;;;8.30;99.90;;;;;;5061104;28;20627;-65
2022/12/30 12:37:07;;;;;;;3.60;2.50;;;8.30;99.90;;;;;;5073330;28;20215;-65
2022/12/30 12:39:54;;;;;;;2.37;1.97;;;8.20;99.90;;;;;;5073151;28;20199;-65
2022/12/30 12:42:27;;;;;;;1.80;1.70;;;8.30;99.90;;;;;;5073615;28;20199;-64
2022/12/30 12:45:18;;;;;;;3.53;1.67;;;8.30;99.90;;;;;;5073604;28;20198;-63
2022/12/30 12:48:00;;;;;;;3.10;2.00;;;8.40;99.90;;;;;;5071701;28;20207;-64
2022/12/30 12:50:40;;;;;;;2.73;2.17;;;8.40;99.90;;;;;;5071726;28;20283;-64
2022/12/30 12:53:44;;;;;;;1.70;1.60;;;8.40;99.90;;;;;;5075896;28;20196;-66
2022/12/30 12:56:35;;;;;;;2.53;1.43;;;8.60;99.90;;;;;;5074909;28;20220;-64
2022/12/30 12:59:13;;;;;;;3.60;1.70;;;8.60;99.90;;;;;;5075657;28;20180;-64
2022/12/30 13:01:52;;;;;;;2.13;1.60;;;8.70;99.90;;;;;;5075725;28;20184;-64
2022/12/30 13:04:47;;;;;;;1.40;1.30;;;8.70;99.90;;;;;;5076962;28;20196;-64
2022/12/30 13:07:34;;;;;;;2.63;2.00;;;8.70;99.90;;;;;;5076669;28;20190;-64
2022/12/30 13:10:35;;;;;;;1.60;1.60;;;8.80;99.90;;;;;;5056837;28;20193;-65
2022/12/30 13:13:32;;;;;;;1.60;1.50;;;8.80;99.90;;;;;;5056607;28;20196;-64
2022/12/30 13:16:03;;;;;;;1.60;1.50;;;8.80;99.90;;;;;;5056507;28;20197;-65
2022/12/30 13:18:34;;;;;;;1.80;1.70;;;8.80;99.90;;;;;;5056997;28;20682;-65
2022/12/30 13:21:06;;;;;;;1.40;1.40;;;8.80;99.90;;;;;;5056510;28;20247;-64
2022/12/30 13:23:41;;;;;;;1.83;1.63;;;8.90;99.90;;;;;;5056977;28;20242;-64
2022/12/30 13:26:10;;;;;;;1.60;1.53;;;8.90;99.90;;;;;;5057051;28;20267;-64
2022/12/30 13:28:40;;;;;;;1.40;1.30;;;8.90;99.90;;;;;;5056243;28;20197;-64
2022/12/30 13:31:21;;;;;;;1.50;1.50;;;8.90;99.90;;;;;;5056448;28;20195;-64
2022/12/30 13:34:00;;;;;;;1.60;1.50;;;9.00;99.90;;;;;;5069095;28;20698;-64
2022/12/30 13:36:38;;;;;;;1.70;1.70;;;9.00;99.90;;;;;;5076656;28;20188;-65
2022/12/30 13:39:22;;;;;;;1.40;1.40;;;9.00;99.90;;;;;;5076075;28;20198;-64
2022/12/30 13:42:09;;;;;;;1.40;1.40;;;9.00;99.90;;;;;;5076115;28;20279;-65
2022/12/30 13:44:43;;;;;;;1.80;1.80;;;9.10;99.90;;;;;;5076121;28;20203;-65
2022/12/30 13:47:29;;;;;;;1.50;1.40;;;9.10;99.90;;;;;;5076198;28;20212;-64
2022/12/30 13:49:58;;;;;;;1.30;1.30;;;9.20;99.90;;;;;;5075885;28;20192;-64
2022/12/30 13:52:29;;;;;;;1.13;1.13;;;9.20;99.90;;;;;;5075879;28;20192;-64
2022/12/30 13:54:59;;;;;;;1.30;1.27;;;9.40;99.90;;;;;;5075718;28;20188;-64
2022/12/30 13:57:31;;;;;;;1.37;1.33;;;9.50;99.90;;;;;;5076124;28;20212;-64
2022/12/30 14:00:28;;;;;;;1.40;1.40;;;9.50;99.90;;;;;;5076039;28;20160;-64
2022/12/30 14:03:03;;;;;;;1.50;1.50;;;9.50;99.90;;;;;;5075613;28;20615;-64
2022/12/30 14:05:48;;;;;;;1.40;1.40;;;9.60;99.90;;;;;;5075188;28;20241;-64
2022/12/30 14:08:42;;;;;;;2.00;1.50;;;9.60;99.90;;;;;;5075667;28;20651;-64
2022/12/30 14:11:14;;;;;;;1.20;1.20;;;9.70;99.90;;;;;;5075269;28;20538;-64
2022/12/30 14:13:44;;;;;;;1.30;1.30;;;9.80;99.90;;;;;;5075456;28;20192;-64
2022/12/30 14:16:43;;;;;;;1.53;1.40;;;9.80;99.90;;;;;;5075379;28;20192;-64
2022/12/30 14:19:20;;;;;;;1.40;1.40;;;9.80;99.90;;;;;;5075509;28;20192;-64
2022/12/30 14:21:52;;;;;;;1.40;1.40;;;9.80;99.90;;;;;;5075559;28;20195;-65
2022/12/30 14:24:48;;;;;;;1.37;1.37;;;9.90;99.90;;;;;;5075239;28;20216;-65
2022/12/30 14:27:45;;;;;;;1.43;1.37;;;9.90;99.90;;;;;;5075445;28;20643;-64
2022/12/30 14:30:29;;;;;;;1.50;1.50;;;10.00;99.90;;;;;;5073930;28;20257;-64
2022/12/30 14:33:02;;;;;;;1.37;1.37;;;10.00;99.90;;;;;;5108210;28;20188;-64
2022/12/30 14:35:31;;;;;;;1.50;1.50;;;10.10;99.90;;;;;;5075040;28;20226;-64
2022/12/30 14:38:27;;;;;;;1.87;1.67;;;10.20;99.90;;;;;;5074872;28;20204;-64
2022/12/30 14:40:59;;;;;;;1.40;1.40;;;10.20;99.90;;;;;;5073724;28;20191;-64
2022/12/30 14:43:29;;;;;;;1.67;1.67;;;10.30;99.90;;;;;;5074820;28;20203;-64
2022/12/30 14:46:54;;;;;;;1.87;1.77;;;10.30;99.90;;;;;;5075559;28;20589;-64
2022/12/30 14:49:30;;;;;;;1.60;1.60;;;10.40;99.90;;;;;;5075016;28;20192;-64